Time;durP1;ratioP1;P1;durP2;ratioP2;P2;SDS_P1;SDS_P2;PMS_P1;PMS_P2;Temp;Humidity;BMP_temperature;BMP_pressure;BME280_temperature;BME280_humidity;BME280_pressure;Samples;Min_cycle;Max_cycle;Signal;HPM_P1;HPM_P2
2023/06/21 00:01:31;;;;;;;6.83;2.87;;;22.20;99.90;;;;;;5091240;28;20248;-52
2023/06/21 00:03:59;;;;;;;10.00;2.90;;;22.10;99.90;;;;;;5091830;28;20670;-53
2023/06/21 00:06:28;;;;;;;7.13;2.50;;;22.10;99.90;;;;;;5092034;28;20207;-52
2023/06/21 00:08:55;;;;;;;8.47;3.13;;;22.10;99.90;;;;;;5090296;28;20224;-53
2023/06/21 00:11:22;;;;;;;4.63;2.20;;;22.10;99.90;;;;;;5090982;28;20196;-53
2023/06/21 00:13:52;;;;;;;2.67;1.97;;;22.00;99.90;;;;;;5091663;28;20200;-53
2023/06/21 00:16:19;;;;;;;3.63;2.67;;;22.00;99.90;;;;;;5092399;28;20204;-52
2023/06/21 00:18:47;;;;;;;3.70;1.93;;;21.90;99.90;;;;;;5090936;28;20224;-53
2023/06/21 00:21:15;;;;;;;5.73;3.10;;;21.90;99.90;;;;;;5088632;28;20216;-53
2023/06/21 00:23:43;;;;;;;7.70;2.77;;;21.90;99.90;;;;;;5090157;28;20201;-52
2023/06/21 00:26:10;;;;;;;4.43;3.13;;;21.90;99.90;;;;;;5083960;28;20208;-53
2023/06/21 00:28:37;;;;;;;9.50;2.60;;;21.90;99.90;;;;;;5083929;28;20289;-53
2023/06/21 00:31:08;;;;;;;9.13;2.83;;;21.80;99.90;;;;;;5088090;28;20246;-52
2023/06/21 00:33:35;;;;;;;3.03;2.53;;;21.80;99.90;;;;;;5091378;28;20200;-53
2023/06/21 00:36:04;;;;;;;8.43;3.23;;;21.70;99.90;;;;;;5091262;28;20250;-53
2023/06/21 00:38:34;;;;;;;10.33;4.23;;;21.60;99.90;;;;;;5091615;28;20228;-53
2023/06/21 00:41:04;;;;;;;7.97;3.73;;;21.60;99.90;;;;;;5089975;28;20228;-53
2023/06/21 00:43:31;;;;;;;9.50;3.90;;;21.60;99.90;;;;;;5090867;28;20632;-53
2023/06/21 00:45:58;;;;;;;7.07;4.23;;;21.50;99.90;;;;;;5091932;28;20386;-52
2023/06/21 00:48:28;;;;;;;9.83;5.10;;;21.50;99.90;;;;;;5092853;28;20220;-52
2023/06/21 00:50:56;;;;;;;8.23;4.47;;;21.50;99.90;;;;;;5091817;28;20196;-53
2023/06/21 00:53:26;;;;;;;8.83;4.37;;;21.40;99.90;;;;;;5088669;28;20299;-53
2023/06/21 00:55:53;;;;;;;5.03;4.50;;;21.40;99.90;;;;;;5088765;28;20228;-52
2023/06/21 00:58:21;;;;;;;12.47;4.27;;;21.30;99.90;;;;;;5091516;28;20266;-53
2023/06/21 01:00:49;;;;;;;8.47;5.17;;;21.20;99.90;;;;;;5087441;28;20275;-53
2023/06/21 01:03:17;;;;;;;7.37;4.67;;;21.20;99.90;;;;;;5090396;28;20201;-52
2023/06/21 01:05:52;;;;;;;8.70;3.60;;;21.20;99.90;;;;;;5091269;28;20283;-52
2023/06/21 01:08:32;;;;;;;6.27;2.97;;;21.20;99.90;;;;;;5090741;28;20226;-53
2023/06/21 01:11:09;;;;;;;8.00;4.47;;;21.20;99.90;;;;;;5091527;28;20662;-52
2023/06/21 01:13:49;;;;;;;5.90;3.63;;;21.20;99.90;;;;;;5092559;28;20264;-54
2023/06/21 01:16:18;;;;;;;6.47;3.43;;;21.20;99.90;;;;;;5088049;28;20637;-52
2023/06/21 01:18:47;;;;;;;6.80;5.20;;;21.30;99.90;;;;;;5094188;28;20228;-53
2023/06/21 01:21:18;;;;;;;5.30;3.50;;;21.30;99.90;;;;;;5095316;28;20220;-52
2023/06/21 01:24:02;;;;;;;5.63;3.43;;;21.30;99.90;;;;;;5095094;28;20204;-53
2023/06/21 01:26:59;;;;;;;13.17;4.17;;;21.30;99.90;;;;;;5095191;28;20212;-52
2023/06/21 01:29:33;;;;;;;7.03;3.90;;;21.30;99.90;;;;;;5093508;28;20236;-53
2023/06/21 01:32:02;;;;;;;8.63;3.83;;;21.20;99.90;;;;;;5090690;28;20270;-52
2023/06/21 01:34:30;;;;;;;8.30;3.70;;;21.20;99.90;;;;;;5089378;28;20713;-53
2023/06/21 01:36:58;;;;;;;6.50;3.83;;;21.20;99.90;;;;;;5094998;28;20197;-52
2023/06/21 01:39:28;;;;;;;10.20;3.67;;;21.10;99.90;;;;;;5095070;28;20311;-53
2023/06/21 01:41:55;;;;;;;4.30;3.73;;;21.10;99.90;;;;;;5090727;28;20220;-53
2023/06/21 01:44:23;;;;;;;9.83;3.40;;;21.10;99.90;;;;;;5094586;28;20197;-52
2023/06/21 01:46:54;;;;;;;5.33;4.80;;;21.00;99.90;;;;;;5093753;28;20250;-53
2023/06/21 01:49:22;;;;;;;7.93;3.77;;;21.00;99.90;;;;;;5094499;28;20701;-53
2023/06/21 01:51:50;;;;;;;8.83;4.27;;;21.00;99.90;;;;;;5093895;28;20204;-53
2023/06/21 01:54:20;;;;;;;5.33;4.27;;;21.00;99.90;;;;;;5093368;28;20242;-53
2023/06/21 01:56:51;;;;;;;7.37;4.13;;;21.00;99.90;;;;;;5094626;28;20197;-53
2023/06/21 01:59:19;;;;;;;6.90;3.90;;;20.90;99.90;;;;;;5094690;28;20228;-53
2023/06/21 02:01:50;;;;;;;6.87;3.87;;;20.90;99.90;;;;;;5093333;28;20220;-53
2023/06/21 02:04:20;;;;;;;7.23;4.13;;;20.90;99.90;;;;;;5093509;28;20208;-52
2023/06/21 02:06:49;;;;;;;7.23;3.70;;;20.90;99.90;;;;;;5094492;28;20619;-53
2023/06/21 02:09:16;;;;;;;6.50;3.73;;;20.90;99.90;;;;;;5094515;28;20705;-53
2023/06/21 02:11:44;;;;;;;9.50;5.10;;;20.80;99.90;;;;;;5085091;28;20201;-53
2023/06/21 02:14:11;;;;;;;7.63;3.43;;;20.70;99.90;;;;;;5094267;28;20662;-52
2023/06/21 02:16:38;;;;;;;6.80;4.53;;;20.60;99.90;;;;;;5093466;28;20207;-53
2023/06/21 02:19:05;;;;;;;6.53;4.57;;;20.70;99.90;;;;;;5093491;28;20294;-53
2023/06/21 02:21:33;;;;;;;7.50;4.70;;;20.70;99.90;;;;;;5085534;28;20689;-53
2023/06/21 02:24:01;;;;;;;9.13;3.93;;;20.60;99.90;;;;;;5093656;28;20197;-53
2023/06/21 02:26:28;;;;;;;6.87;4.80;;;20.50;99.90;;;;;;5092373;28;20246;-53
2023/06/21 02:28:55;;;;;;;13.13;5.87;;;20.40;99.90;;;;;;5088520;28;20225;-52
2023/06/21 02:31:22;;;;;;;11.00;4.70;;;20.40;99.90;;;;;;5093998;28;20196;-52
2023/06/21 02:33:50;;;;;;;9.03;4.53;;;20.50;99.90;;;;;;5093989;28;20206;-53
2023/06/21 02:36:17;;;;;;;7.00;4.33;;;20.60;99.90;;;;;;5093857;28;20257;-52
2023/06/21 02:38:45;;;;;;;6.70;4.13;;;20.60;99.90;;;;;;5090597;28;20590;-52
2023/06/21 02:41:12;;;;;;;7.50;4.30;;;20.60;99.90;;;;;;5093719;28;20634;-52
2023/06/21 02:43:39;;;;;;;5.63;3.93;;;20.50;99.90;;;;;;5091919;28;20192;-52
2023/06/21 02:46:06;;;;;;;8.10;4.40;;;20.50;99.90;;;;;;5093482;28;20741;-52
2023/06/21 02:48:33;;;;;;;7.60;4.30;;;20.60;99.90;;;;;;5092510;28;20737;-53
2023/06/21 02:51:00;;;;;;;13.57;4.33;;;20.60;99.90;;;;;;5093364;28;20219;-52
2023/06/21 02:53:27;;;;;;;6.17;3.60;;;20.70;99.90;;;;;;5092615;28;20257;-52
2023/06/21 02:55:56;;;;;;;10.87;4.43;;;20.60;99.90;;;;;;5090773;28;20196;-52
2023/06/21 02:58:22;;;;;;;11.70;4.70;;;20.60;99.90;;;;;;5092402;28;20706;-52
2023/06/21 03:00:50;;;;;;;10.13;4.53;;;20.50;99.90;;;;;;5089444;28;20254;-52
2023/06/21 03:03:17;;;;;;;9.37;4.93;;;20.40;99.90;;;;;;5093209;28;20228;-52
2023/06/21 03:05:44;;;;;;;8.23;5.00;;;20.30;99.90;;;;;;5092991;28;20246;-53
2023/06/21 03:08:11;;;;;;;10.30;6.23;;;20.40;99.90;;;;;;5093215;28;20270;-52
2023/06/21 03:10:39;;;;;;;12.67;6.23;;;20.30;99.90;;;;;;5093241;28;20204;-52
2023/06/21 03:13:07;;;;;;;6.83;5.27;;;20.10;99.90;;;;;;5091976;28;20242;-52
2023/06/21 03:15:34;;;;;;;7.47;5.23;;;20.10;99.90;;;;;;5092088;28;20197;-52
2023/06/21 03:18:01;;;;;;;9.50;4.77;;;20.10;99.90;;;;;;5092759;28;20245;-52
2023/06/21 03:20:28;;;;;;;9.77;5.77;;;20.00;99.90;;;;;;5092076;28;20677;-51
2023/06/21 03:22:55;;;;;;;9.03;5.80;;;20.00;99.90;;;;;;5090736;28;20305;-52
2023/06/21 03:25:22;;;;;;;8.40;5.73;;;20.10;99.90;;;;;;5092875;28;20684;-52
2023/06/21 03:27:49;;;;;;;10.13;6.33;;;20.10;99.90;;;;;;5092832;28;20196;-53
2023/06/21 03:30:17;;;;;;;10.17;7.00;;;20.10;99.90;;;;;;5092856;28;20209;-53
2023/06/21 03:32:46;;;;;;;11.17;6.10;;;20.20;99.90;;;;;;5090758;28;20257;-53
2023/06/21 03:35:14;;;;;;;12.07;7.80;;;20.30;99.90;;;;;;5092894;28;20193;-52
2023/06/21 03:37:41;;;;;;;12.73;7.03;;;20.40;99.90;;;;;;5092660;28;20265;-53
2023/06/21 03:40:11;;;;;;;8.63;6.20;;;20.60;99.90;;;;;;5092868;28;20200;-53
2023/06/21 03:42:39;;;;;;;13.10;6.73;;;20.60;99.90;;;;;;5092311;28;20878;-52
2023/06/21 03:45:07;;;;;;;11.30;6.83;;;20.70;99.90;;;;;;5090329;28;20211;-52
2023/06/21 03:47:37;;;;;;;9.83;6.60;;;20.60;99.90;;;;;;5091409;28;20870;-53
2023/06/21 03:50:05;;;;;;;10.03;6.67;;;20.60;99.90;;;;;;5082504;28;20220;-52
2023/06/21 03:52:32;;;;;;;15.37;7.97;;;20.60;99.90;;;;;;5092293;28;20197;-52
2023/06/21 03:54:59;;;;;;;7.67;6.60;;;20.60;99.90;;;;;;5092364;28;20614;-52
2023/06/21 03:57:27;;;;;;;8.60;6.87;;;20.60;99.90;;;;;;5091257;28;20204;-52
2023/06/21 03:59:54;;;;;;;11.53;6.63;;;20.60;99.90;;;;;;5092254;28;20786;-52
2023/06/21 04:02:21;;;;;;;8.03;7.20;;;20.70;99.90;;;;;;5091201;28;20212;-52
2023/06/21 04:04:49;;;;;;;10.60;7.03;;;20.60;99.90;;;;;;5090237;28;20235;-52
2023/06/21 04:07:19;;;;;;;10.60;7.20;;;20.60;99.90;;;;;;5085258;28;20193;-52
2023/06/21 04:09:46;;;;;;;11.13;7.77;;;20.70;99.90;;;;;;5089798;28;20243;-52
2023/06/21 04:12:13;;;;;;;14.17;7.10;;;20.80;99.90;;;;;;5085681;28;20287;-52
2023/06/21 04:14:40;;;;;;;13.13;7.53;;;20.80;99.90;;;;;;5088048;28;20200;-52
2023/06/21 04:17:07;;;;;;;13.47;7.23;;;20.90;99.90;;;;;;5091862;28;20204;-52
2023/06/21 04:19:35;;;;;;;12.47;7.03;;;21.00;99.90;;;;;;5092044;28;20228;-53
2023/06/21 04:22:03;;;;;;;11.50;6.47;;;21.00;99.90;;;;;;5082620;28;20590;-53
2023/06/21 04:24:30;;;;;;;12.03;7.70;;;21.00;99.90;;;;;;5091689;28;20607;-53
2023/06/21 04:26:58;;;;;;;11.70;7.57;;;21.00;99.90;;;;;;5091876;28;20243;-53
2023/06/21 04:29:25;;;;;;;7.40;6.70;;;21.10;99.90;;;;;;5088328;28;20224;-53
2023/06/21 04:31:53;;;;;;;12.37;6.83;;;21.20;99.90;;;;;;5071659;28;20670;-53
2023/06/21 04:34:20;;;;;;;12.50;7.50;;;21.30;99.90;;;;;;5084514;28;20201;-53
2023/06/21 04:36:48;;;;;;;15.07;9.83;;;21.40;99.90;;;;;;5090985;28;20197;-52
2023/06/21 04:39:17;;;;;;;12.33;7.67;;;21.50;99.90;;;;;;5091711;28;20652;-53
2023/06/21 04:41:51;;;;;;;10.77;7.83;;;21.70;99.90;;;;;;5091765;28;20197;-53
2023/06/21 04:44:18;;;;;;;12.57;7.07;;;21.70;99.90;;;;;;5091513;28;20875;-52
2023/06/21 04:46:45;;;;;;;13.87;7.73;;;21.80;99.90;;;;;;5089307;28;20245;-53
2023/06/21 04:49:12;;;;;;;13.37;6.37;;;22.00;99.90;;;;;;5091943;28;20323;-53
2023/06/21 04:51:39;;;;;;;12.77;6.83;;;22.10;99.90;;;;;;5083439;28;20200;-53
2023/06/21 04:54:06;;;;;;;15.30;7.63;;;22.20;99.90;;;;;;5095518;28;20245;-52
2023/06/21 04:56:35;;;;;;;19.20;6.63;;;22.30;99.90;;;;;;5095886;28;20203;-52
2023/06/21 04:59:03;;;;;;;11.03;6.87;;;22.50;99.90;;;;;;5095684;28;20221;-52
2023/06/21 05:01:30;;;;;;;14.77;7.63;;;22.60;99.90;;;;;;5088153;28;20201;-52
2023/06/21 05:03:57;;;;;;;11.97;6.87;;;22.70;99.90;;;;;;5092149;28;20228;-52
2023/06/21 05:06:25;;;;;;;13.70;5.77;;;22.80;99.90;;;;;;5093610;28;20281;-52
2023/06/21 05:08:53;;;;;;;10.80;7.30;;;22.90;99.90;;;;;;5095483;28;20219;-53
2023/06/21 05:11:20;;;;;;;14.93;6.73;;;23.10;99.90;;;;;;5094021;28;20197;-53
2023/06/21 05:13:48;;;;;;;12.00;6.57;;;23.30;99.90;;;;;;5095575;28;20628;-53
2023/06/21 05:16:15;;;;;;;9.47;6.63;;;23.60;99.90;;;;;;5086165;28;20200;-52
2023/06/21 05:18:42;;;;;;;15.43;8.27;;;23.80;99.90;;;;;;5091008;28;20270;-52
2023/06/21 05:21:09;;;;;;;14.30;7.07;;;24.20;99.90;;;;;;5095032;28;20219;-52
2023/06/21 05:23:36;;;;;;;17.63;6.00;;;24.70;99.90;;;;;;5095103;28;20228;-52
2023/06/21 05:26:03;;;;;;;10.23;5.97;;;25.20;99.90;;;;;;5093640;28;20239;-53
2023/06/21 05:28:30;;;;;;;12.50;6.60;;;25.70;99.90;;;;;;5094197;28;20227;-52
2023/06/21 05:33:26;;;;;;;7.37;5.17;;;26.70;99.90;;;;;;5032898;28;20215;-54
2023/06/21 05:35:53;;;;;;;14.70;6.63;;;27.20;99.90;;;;;;5051053;28;20198;-54
2023/06/21 05:38:20;;;;;;;12.20;6.53;;;27.60;99.90;;;;;;5042791;28;20595;-54
2023/06/21 05:40:47;;;;;;;15.00;6.63;;;27.80;99.90;;;;;;5032857;28;20286;-54
2023/06/21 05:43:14;;;;;;;8.90;6.00;;;28.10;99.90;;;;;;5036321;28;20691;-54
2023/06/21 05:45:41;;;;;;;9.52;5.30;;;28.10;99.90;;;;;;5044425;28;20251;-54
2023/06/21 05:48:08;;;;;;;8.85;4.70;;;28.00;99.90;;;;;;5053014;28;20228;-54
2023/06/21 05:50:36;;;;;;;19.83;6.78;;;28.60;99.90;;;;;;5042464;28;20198;-54
2023/06/21 05:53:03;;;;;;;11.93;7.88;;;28.80;99.90;;;;;;5032772;28;20222;-54
2023/06/21 05:55:30;;;;;;;13.15;5.57;;;28.50;99.90;;;;;;5032792;28;20269;-54
2023/06/21 05:57:57;;;;;;;11.23;4.72;;;28.50;99.90;;;;;;5035887;28;20212;-54
2023/06/21 06:00:24;;;;;;;10.02;5.38;;;29.00;99.90;;;;;;5038349;28;20194;-54
2023/06/21 06:02:51;;;;;;;13.10;6.15;;;29.00;99.90;;;;;;5041852;28;20324;-54
2023/06/21 06:05:19;;;;;;;9.85;4.20;;;28.50;99.90;;;;;;5051996;28;20745;-54
2023/06/21 06:07:47;;;;;;;11.45;4.93;;;28.80;99.90;;;;;;5052645;28;20202;-54
2023/06/21 06:10:14;;;;;;;12.52;5.75;;;28.80;99.90;;;;;;5049138;28;20210;-54
2023/06/21 06:12:41;;;;;;;14.88;5.72;;;28.50;99.90;;;;;;5040228;28;20215;-54
2023/06/21 06:15:09;;;;;;;13.35;4.60;;;28.20;99.90;;;;;;5035451;28;20202;-54
2023/06/21 06:17:36;;;;;;;11.35;4.55;;;28.70;99.90;;;;;;5036536;28;20195;-54
2023/06/21 06:20:05;;;;;;;9.20;3.78;;;28.60;99.90;;;;;;5032011;28;20532;-54
2023/06/21 06:22:34;;;;;;;9.25;5.60;;;29.20;99.90;;;;;;5031844;28;20222;-54
2023/06/21 06:25:02;;;;;;;9.73;4.28;;;28.90;99.90;;;;;;5030292;28;20296;-54
2023/06/21 06:27:29;;;;;;;11.20;5.10;;;28.80;99.90;;;;;;5032102;28;20206;-54
2023/06/21 06:29:56;;;;;;;10.07;4.93;;;28.60;99.90;;;;;;5031815;28;20195;-54
2023/06/21 06:32:23;;;;;;;9.40;4.82;;;29.00;99.90;;;;;;5031153;28;20253;-54
2023/06/21 06:34:50;;;;;;;12.13;5.40;;;29.40;99.90;;;;;;5032153;28;20505;-54
2023/06/21 06:37:17;;;;;;;12.82;5.78;;;30.20;99.90;;;;;;5033206;28;20194;-56
2023/06/21 06:39:44;;;;;;;11.85;5.40;;;30.70;99.90;;;;;;5031922;28;20245;-54
2023/06/21 06:42:12;;;;;;;7.55;4.80;;;30.50;99.90;;;;;;5031534;28;20267;-54
2023/06/21 06:44:40;;;;;;;12.85;5.03;;;30.90;99.90;;;;;;5022909;28;20269;-55
2023/06/21 06:47:07;;;;;;;18.83;5.30;;;31.70;99.90;;;;;;5011988;28;20207;-55
2023/06/21 06:49:34;;;;;;;6.97;4.57;;;32.40;99.90;;;;;;5023827;28;20696;-54
2023/06/21 06:52:01;;;;;;;16.35;5.88;;;33.10;99.90;;;;;;5032124;28;20222;-54
2023/06/21 06:54:28;;;;;;;12.75;5.15;;;33.20;99.90;;;;;;5031615;28;20245;-55
2023/06/21 06:56:55;;;;;;;12.48;5.45;;;33.20;99.90;;;;;;5030453;28;20198;-55
2023/06/21 06:59:23;;;;;;;11.70;5.88;;;33.30;99.90;;;;;;5034411;28;20503;-54
2023/06/21 07:01:50;;;;;;;11.95;7.60;;;33.20;99.90;;;;;;5040721;28;20352;-54
2023/06/21 07:04:17;;;;;;;9.88;5.38;;;33.40;99.90;;;;;;5044360;28;20293;-55
2023/06/21 07:06:45;;;;;;;14.48;6.28;;;33.00;99.90;;;;;;5028559;28;20629;-55
2023/06/21 07:09:12;;;;;;;7.93;4.93;;;32.90;99.90;;;;;;5038071;28;20202;-54
2023/06/21 07:11:39;;;;;;;11.45;5.72;;;33.00;99.90;;;;;;5040448;28;20219;-55
2023/06/21 07:14:06;;;;;;;10.52;6.22;;;33.20;99.90;;;;;;5037663;28;20210;-54
2023/06/21 07:16:41;;;;;;;8.50;5.30;;;33.20;99.90;;;;;;5029574;28;20691;-55
2023/06/21 07:19:08;;;;;;;11.63;5.15;;;33.40;99.90;;;;;;5028723;28;20453;-55
2023/06/21 07:21:35;;;;;;;10.82;6.43;;;33.60;99.90;;;;;;5039287;28;20218;-55
2023/06/21 07:24:02;;;;;;;7.13;5.03;;;34.00;99.90;;;;;;5040943;28;21188;-64
2023/06/21 07:26:31;;;;;;;13.55;5.72;;;33.70;99.90;;;;;;5041554;28;20251;-63
2023/06/21 07:28:58;;;;;;;14.50;5.22;;;33.60;99.90;;;;;;5038679;28;20205;-63
2023/06/21 07:31:25;;;;;;;7.72;5.47;;;33.60;99.90;;;;;;5029061;28;20617;-62
2023/06/21 07:33:57;;;;;;;11.07;6.82;;;34.10;99.90;;;;;;5029600;28;20194;-63
2023/06/21 07:36:24;;;;;;;12.40;6.07;;;34.20;99.90;;;;;;5035787;28;20202;-63
2023/06/21 07:38:51;;;;;;;10.45;6.00;;;34.80;99.90;;;;;;5042462;28;20888;-63
2023/06/21 07:41:18;;;;;;;14.88;6.43;;;34.80;99.90;;;;;;5037982;28;20230;-63
2023/06/21 07:43:45;;;;;;;11.77;6.55;;;34.70;99.90;;;;;;5035751;28;20273;-63
2023/06/21 07:46:11;;;;;;;7.50;6.50;;;34.20;99.90;;;;;;5028428;28;20198;-63
2023/06/21 07:48:39;;;;;;;6.28;5.68;;;34.30;99.90;;;;;;5029666;28;20248;-63
2023/06/21 07:51:07;;;;;;;14.68;6.65;;;34.80;99.90;;;;;;5040856;28;20198;-64
2023/06/21 07:53:34;;;;;;;11.25;6.63;;;35.00;99.90;;;;;;5030663;28;20342;-64
2023/06/21 07:56:01;;;;;;;7.75;5.78;;;34.70;99.90;;;;;;5035340;28;20195;-63
2023/06/21 07:58:28;;;;;;;13.48;6.07;;;34.90;99.90;;;;;;5035033;28;20225;-63
2023/06/21 08:00:55;;;;;;;9.35;6.93;;;35.10;99.90;;;;;;5029349;28;20664;-63
2023/06/21 08:03:22;;;;;;;7.72;6.97;;;35.50;99.90;;;;;;5031678;28;20214;-63
2023/06/21 08:05:48;;;;;;;8.32;6.63;;;35.80;99.90;;;;;;5036670;28;20605;-64
2023/06/21 08:08:17;;;;;;;8.73;7.20;;;35.40;99.90;;;;;;5028270;28;20224;-63
2023/06/21 08:10:44;;;;;;;9.73;6.85;;;35.30;99.90;;;;;;5029642;28;20209;-63
2023/06/21 08:13:11;;;;;;;11.82;7.47;;;35.60;99.90;;;;;;5034228;28;20222;-63
2023/06/21 08:15:38;;;;;;;9.88;7.40;;;35.40;99.90;;;;;;5046171;28;20636;-64
2023/06/21 08:18:07;;;;;;;9.80;6.30;;;34.70;99.90;;;;;;5042038;28;20202;-63
2023/06/21 08:20:34;;;;;;;10.38;6.85;;;34.40;99.90;;;;;;5027110;28;20776;-64
2023/06/21 08:23:01;;;;;;;11.02;7.32;;;34.30;99.90;;;;;;5031247;28;20222;-63
2023/06/21 08:25:29;;;;;;;13.32;7.57;;;34.80;99.90;;;;;;5048965;28;20206;-64
2023/06/21 08:27:56;;;;;;;10.77;6.78;;;35.30;99.90;;;;;;5030125;28;20207;-64
2023/06/21 08:30:23;;;;;;;17.48;7.68;;;35.10;99.90;;;;;;5037248;28;20625;-63
2023/06/21 08:32:51;;;;;;;10.20;6.47;;;34.80;99.90;;;;;;5047154;28;20229;-64
2023/06/21 08:35:18;;;;;;;10.77;6.85;;;34.70;99.90;;;;;;5049793;28;20201;-63
2023/06/21 08:37:55;;;;;;;8.07;6.20;;;34.70;99.90;;;;;;5047865;28;20628;-63
2023/06/21 08:40:26;;;;;;;8.73;6.00;;;34.90;99.90;;;;;;5029699;28;20312;-63
2023/06/21 08:42:54;;;;;;;12.52;8.75;;;34.50;99.90;;;;;;5030153;28;20222;-63
2023/06/21 08:45:22;;;;;;;15.75;8.18;;;34.60;99.90;;;;;;5032942;28;20230;-62
2023/06/21 08:47:51;;;;;;;15.98;7.55;;;33.50;99.90;;;;;;5043383;28;20271;-63
2023/06/21 08:50:19;;;;;;;15.50;10.82;;;32.80;99.90;;;;;;5037078;28;20210;-63
2023/06/21 08:52:48;;;;;;;11.95;9.27;;;32.20;99.90;;;;;;5036944;28;20280;-63
2023/06/21 08:55:17;;;;;;;11.40;10.18;;;31.80;99.90;;;;;;5035657;28;20663;-63
2023/06/21 08:57:49;;;;;;;18.83;11.35;;;31.90;99.90;;;;;;5030466;28;20281;-63
2023/06/21 09:00:22;;;;;;;9.93;8.95;;;31.60;99.90;;;;;;5029792;28;20249;-62
2023/06/21 09:02:56;;;;;;;15.93;10.45;;;31.00;99.90;;;;;;5029497;28;20226;-63
2023/06/21 09:05:28;;;;;;;15.90;9.93;;;30.00;99.90;;;;;;5029472;28;20226;-63
2023/06/21 09:07:57;;;;;;;13.57;8.00;;;28.50;99.90;;;;;;5029762;28;20207;-63
2023/06/21 09:10:25;;;;;;;13.75;7.15;;;28.20;99.90;;;;;;5028687;28;20206;-63
2023/06/21 09:12:54;;;;;;;17.15;9.32;;;29.00;99.90;;;;;;5038863;28;20214;-63
2023/06/21 09:15:23;;;;;;;9.88;6.38;;;29.00;99.90;;;;;;5043891;28;20190;-63
2023/06/21 09:17:51;;;;;;;11.00;3.65;;;29.10;99.90;;;;;;5029577;28;20260;-63
2023/06/21 09:20:18;;;;;;;9.18;3.33;;;28.90;99.90;;;;;;5029950;28;20260;-63
2023/06/21 09:22:46;;;;;;;7.43;3.70;;;28.60;99.90;;;;;;5029448;28;20230;-63
2023/06/21 09:25:13;;;;;;;9.50;3.58;;;28.70;99.90;;;;;;5033031;28;20252;-63
2023/06/21 09:27:40;;;;;;;11.10;3.05;;;28.70;99.90;;;;;;5041206;28;20271;-62
2023/06/21 09:30:09;;;;;;;10.75;4.03;;;28.10;99.90;;;;;;5049489;28;20202;-63
2023/06/21 09:32:38;;;;;;;12.25;2.55;;;28.40;99.90;;;;;;5048990;28;20245;-63
2023/06/21 09:35:06;;;;;;;9.95;2.72;;;28.60;99.90;;;;;;5051508;28;20194;-62
2023/06/21 09:37:35;;;;;;;6.07;2.85;;;29.00;99.90;;;;;;5053271;28;20198;-63
2023/06/21 09:40:03;;;;;;;11.60;3.58;;;29.20;99.90;;;;;;5042223;28;20202;-63
2023/06/21 09:42:31;;;;;;;14.07;4.03;;;29.30;99.90;;;;;;5047734;28;20222;-63
2023/06/21 09:44:58;;;;;;;6.32;2.45;;;28.60;99.90;;;;;;5052842;28;20218;-62
2023/06/21 09:47:30;;;;;;;6.47;2.47;;;28.50;99.90;;;;;;5053235;28;20202;-63
2023/06/21 09:49:59;;;;;;;11.40;4.63;;;28.50;99.90;;;;;;5053081;28;20590;-63
2023/06/21 09:52:26;;;;;;;7.32;3.13;;;27.90;99.90;;;;;;5041737;28;20241;-63
2023/06/21 09:54:57;;;;;;;5.03;2.38;;;28.00;99.90;;;;;;5042434;28;20202;-62
2023/06/21 09:57:28;;;;;;;6.70;3.45;;;28.20;99.90;;;;;;5033717;28;20695;-63
2023/06/21 09:59:55;;;;;;;5.38;2.53;;;28.10;99.90;;;;;;5032623;28;20748;-62
2023/06/21 10:02:25;;;;;;;4.65;2.95;;;28.30;99.90;;;;;;5032435;28;20222;-63
2023/06/21 10:04:54;;;;;;;7.78;2.88;;;28.20;99.90;;;;;;5032835;28;20722;-62
2023/06/21 10:07:24;;;;;;;8.60;4.47;;;27.90;99.90;;;;;;5037541;28;20202;-63
2023/06/21 10:09:51;;;;;;;8.52;3.75;;;27.90;99.90;;;;;;5035190;28;20677;-62
2023/06/21 10:12:18;;;;;;;6.40;3.95;;;28.00;99.90;;;;;;5041821;28;20283;-62
2023/06/21 10:14:45;;;;;;;10.13;4.38;;;28.20;99.90;;;;;;5040713;28;20205;-63
2023/06/21 10:17:13;;;;;;;7.68;3.92;;;28.10;99.90;;;;;;5052481;28;20201;-63
2023/06/21 10:19:43;;;;;;;9.32;3.90;;;27.70;99.90;;;;;;5040489;28;20710;-62
2023/06/21 10:22:11;;;;;;;10.73;5.07;;;27.80;99.90;;;;;;5024158;28;20301;-62
2023/06/21 10:24:43;;;;;;;5.25;4.07;;;28.10;99.90;;;;;;5032151;28;20701;-63
2023/06/21 10:27:11;;;;;;;9.82;4.70;;;28.50;99.90;;;;;;5032270;28;20615;-63
2023/06/21 10:29:41;;;;;;;5.63;3.83;;;29.30;99.90;;;;;;5032198;28;20206;-62
2023/06/21 10:32:08;;;;;;;11.10;4.40;;;29.80;99.90;;;;;;5031896;28;20304;-64
2023/06/21 10:34:47;;;;;;;5.75;4.13;;;29.90;99.90;;;;;;5032245;28;20202;-63
2023/06/21 10:37:28;;;;;;;6.70;3.20;;;29.70;99.90;;;;;;5033576;28;20275;-63
2023/06/21 10:40:03;;;;;;;6.85;3.13;;;30.10;99.90;;;;;;5031811;28;20207;-63
2023/06/21 10:42:32;;;;;;;7.35;2.88;;;30.20;99.90;;;;;;5030437;28;20524;-60
2023/06/21 10:45:00;;;;;;;6.35;3.38;;;30.70;99.90;;;;;;5042034;28;20264;-67
2023/06/21 10:47:27;;;;;;;6.13;2.60;;;30.50;99.90;;;;;;5039678;28;20202;-66
2023/06/21 10:49:57;;;;;;;9.07;3.72;;;30.40;99.90;;;;;;5031735;28;20282;-72
2023/06/21 10:52:26;;;;;;;7.35;2.40;;;30.10;99.90;;;;;;5030648;28;20218;-69
2023/06/21 10:54:57;;;;;;;8.18;3.33;;;29.60;99.90;;;;;;5040777;28;20639;-67
2023/06/21 10:57:29;;;;;;;6.82;2.97;;;28.80;99.90;;;;;;5045901;28;20202;-68
2023/06/21 10:59:57;;;;;;;10.63;3.53;;;28.60;99.90;;;;;;5041606;28;20203;-68
2023/06/21 11:02:29;;;;;;;7.32;2.90;;;28.90;99.90;;;;;;5036319;28;20222;-68
2023/06/21 11:05:16;;;;;;;8.27;3.22;;;28.50;99.90;;;;;;5031410;28;20241;-68
2023/06/21 11:07:50;;;;;;;11.90;3.97;;;28.00;99.90;;;;;;5038903;28;20217;-67
2023/06/21 11:10:22;;;;;;;3.63;3.20;;;27.90;99.90;;;;;;5051683;28;20205;-69
2023/06/21 11:12:54;;;;;;;11.52;3.13;;;27.40;99.90;;;;;;5051177;28;20221;-66
2023/06/21 11:15:22;;;;;;;8.07;2.85;;;27.30;99.90;;;;;;5051428;28;20217;-65
2023/06/21 11:18:05;;;;;;;4.13;2.55;;;27.30;99.90;;;;;;5051544;28;20205;-65
2023/06/21 11:20:43;;;;;;;4.60;3.80;;;27.70;99.90;;;;;;5043584;28;20288;-61
2023/06/21 11:23:11;;;;;;;4.03;3.72;;;28.20;99.90;;;;;;5023366;28;20280;-65
2023/06/21 11:25:49;;;;;;;5.20;4.35;;;28.70;99.90;;;;;;5031232;28;20241;-66
2023/06/21 11:28:26;;;;;;;5.68;4.13;;;29.20;99.90;;;;;;5031391;28;20214;-66
2023/06/21 11:31:12;;;;;;;6.22;3.38;;;29.30;99.90;;;;;;5031255;28;20202;-66
2023/06/21 11:33:51;;;;;;;7.95;4.00;;;29.40;99.90;;;;;;5034712;28;20216;-68
2023/06/21 11:36:21;;;;;;;8.35;3.95;;;29.10;99.90;;;;;;5039426;28;20191;-66
2023/06/21 11:38:53;;;;;;;6.15;3.72;;;28.90;99.90;;;;;;5029440;28;20257;-68
2023/06/21 11:42:11;;;;;;;7.20;4.10;;;28.60;99.90;;;;;;5044181;28;20249;-69
2023/06/21 11:44:39;;;;;;;5.60;3.38;;;28.20;99.90;;;;;;5066656;22;20224;-65
2023/06/21 11:47:17;;;;;;;5.63;3.08;;;28.40;99.90;;;;;;5064068;28;20201;-65
2023/06/21 11:49:56;;;;;;;6.35;4.65;;;28.50;99.90;;;;;;5068998;28;20201;-62
2023/06/21 11:52:33;;;;;;;9.60;3.58;;;28.30;99.90;;;;;;5070954;28;20204;-66
2023/06/21 11:55:13;;;;;;;8.80;4.47;;;28.50;99.90;;;;;;5066893;28;20605;-62
2023/06/21 11:57:47;;;;;;;4.25;2.47;;;28.80;99.90;;;;;;5071586;28;20225;-62
2023/06/21 12:00:16;;;;;;;4.18;2.83;;;28.80;99.90;;;;;;5071947;28;20872;-62
2023/06/21 12:02:43;;;;;;;3.80;2.97;;;29.10;99.90;;;;;;5062365;28;20548;-62
2023/06/21 12:05:10;;;;;;;4.25;3.20;;;29.00;99.90;;;;;;5065996;28;20267;-62
2023/06/21 12:07:37;;;;;;;5.00;3.17;;;28.80;99.90;;;;;;5058102;28;20674;-63
2023/06/21 12:10:05;;;;;;;2.50;2.22;;;28.70;99.90;;;;;;5063406;28;20247;-64
2023/06/21 12:12:33;;;;;;;3.70;2.35;;;28.70;99.90;;;;;;5059493;28;20209;-64
2023/06/21 12:15:01;;;;;;;5.13;2.78;;;28.80;99.90;;;;;;5051932;28;20310;-63
2023/06/21 12:17:32;;;;;;;3.00;1.90;;;28.90;99.90;;;;;;5051727;28;20211;-64
2023/06/21 12:20:06;;;;;;;4.40;3.15;;;28.70;99.90;;;;;;5048326;28;20201;-63
2023/06/21 12:22:33;;;;;;;6.78;3.00;;;28.50;99.90;;;;;;5056437;28;20202;-63
2023/06/21 12:25:00;;;;;;;12.98;5.68;;;28.40;99.90;;;;;;5051122;28;20257;-55
2023/06/21 12:27:29;;;;;;;2.80;2.60;;;28.20;99.90;;;;;;5062774;28;20205;-55
2023/06/21 12:29:56;;;;;;;3.80;3.42;;;28.20;99.90;;;;;;5065154;28;20254;-55
2023/06/21 12:32:26;;;;;;;8.90;3.55;;;28.10;99.90;;;;;;5045570;28;20213;-55
2023/06/21 12:35:03;;;;;;;5.78;3.92;;;27.80;99.90;;;;;;5048954;28;20218;-54
2023/06/21 12:37:31;;;;;;;8.32;3.75;;;27.90;99.90;;;;;;5063064;28;20201;-55
2023/06/21 12:40:01;;;;;;;4.85;4.07;;;28.10;99.90;;;;;;5069839;28;20201;-55
2023/06/21 12:42:30;;;;;;;4.00;3.63;;;28.10;99.90;;;;;;5051311;28;20210;-55
2023/06/21 12:44:58;;;;;;;12.77;4.38;;;27.70;99.90;;;;;;5052599;28;20229;-55
2023/06/21 12:47:27;;;;;;;11.27;5.43;;;27.70;99.90;;;;;;5057472;28;20212;-54
2023/06/21 12:50:01;;;;;;;95.90;13.13;;;27.60;99.90;;;;;;5063021;28;20197;-55
2023/06/21 12:52:28;;;;;;;83.82;10.52;;;27.60;99.90;;;;;;5067041;28;20645;-55
2023/06/21 12:54:56;;;;;;;3.90;2.53;;;27.70;99.90;;;;;;5051269;28;20597;-55